sensor_id;sensor_type;location;lat;lon;timestamp;temperature;humidity
20155;DHT22;10238;49.556;10.956;2023-04-24T00:00:20;11.50;99.90
20155;DHT22;10238;49.556;10.956;2023-04-24T00:03:07;11.40;99.90
20155;DHT22;10238;49.556;10.956;2023-04-24T00:05:55;11.40;99.90
20155;DHT22;10238;49.556;10.956;2023-04-24T00:08:45;11.40;99.90
20155;DHT22;10238;49.556;10.956;2023-04-24T00:11:33;11.40;99.90
20155;DHT22;10238;49.556;10.956;2023-04-24T00:14:21;11.40;99.90
20155;DHT22;10238;49.556;10.956;2023-04-24T00:17:09;11.30;99.90
20155;DHT22;10238;49.556;10.956;2023-04-24T00:19:57;11.20;99.90
20155;DHT22;10238;49.556;10.956;2023-04-24T00:22:45;11.10;99.90
20155;DHT22;10238;49.556;10.956;2023-04-24T00:25:33;11.10;99.90
20155;DHT22;10238;49.556;10.956;2023-04-24T00:28:22;11.00;99.90
20155;DHT22;10238;49.556;10.956;2023-04-24T00:31:10;10.90;99.90
20155;DHT22;10238;49.556;10.956;2023-04-24T00:33:58;11.00;99.90
20155;DHT22;10238;49.556;10.956;2023-04-24T00:36:45;11.00;99.90
20155;DHT22;10238;49.556;10.956;2023-04-24T00:39:35;10.90;99.90
20155;DHT22;10238;49.556;10.956;2023-04-24T00:42:22;10.80;99.90
20155;DHT22;10238;49.556;10.956;2023-04-24T00:45:12;10.80;99.90
20155;DHT22;10238;49.556;10.956;2023-04-24T00:48:00;10.70;99.90
20155;DHT22;10238;49.556;10.956;2023-04-24T00:50:48;10.80;99.90
20155;DHT22;10238;49.556;10.956;2023-04-24T00:53:36;10.80;99.90
20155;DHT22;10238;49.556;10.956;2023-04-24T00:56:24;10.80;99.90
20155;DHT22;10238;49.556;10.956;2023-04-24T00:59:12;10.70;99.90
20155;DHT22;10238;49.556;10.956;2023-04-24T01:02:02;10.70;99.90
20155;DHT22;10238;49.556;10.956;2023-04-24T01:04:50;10.70;99.90
20155;DHT22;10238;49.556;10.956;2023-04-24T01:07:39;10.70;99.90
20155;DHT22;10238;49.556;10.956;2023-04-24T01:10:31;10.70;99.90
20155;DHT22;10238;49.556;10.956;2023-04-24T01:13:20;10.70;99.90
20155;DHT22;10238;49.556;10.956;2023-04-24T01:16:08;10.60;99.90
20155;DHT22;10238;49.556;10.956;2023-04-24T01:18:57;10.60;99.90
20155;DHT22;10238;49.556;10.956;2023-04-24T01:21:47;10.60;99.90
20155;DHT22;10238;49.556;10.956;2023-04-24T01:24:39;10.60;99.90
20155;DHT22;10238;49.556;10.956;2023-04-24T01:27:29;10.60;99.90
20155;DHT22;10238;49.556;10.956;2023-04-24T01:30:17;10.60;99.90
20155;DHT22;10238;49.556;10.956;2023-04-24T01:33:05;10.60;99.90
20155;DHT22;10238;49.556;10.956;2023-04-24T01:35:53;10.60;99.90
20155;DHT22;10238;49.556;10.956;2023-04-24T01:38:41;10.50;99.90
20155;DHT22;10238;49.556;10.956;2023-04-24T01:41:30;10.50;99.90
20155;DHT22;10238;49.556;10.956;2023-04-24T01:44:18;10.50;99.90
20155;DHT22;10238;49.556;10.956;2023-04-24T01:47:06;10.50;99.90
20155;DHT22;10238;49.556;10.956;2023-04-24T01:49:54;10.50;99.90
20155;DHT22;10238;49.556;10.956;2023-04-24T01:52:41;10.50;99.90
20155;DHT22;10238;49.556;10.956;2023-04-24T01:55:29;10.50;99.90
20155;DHT22;10238;49.556;10.956;2023-04-24T01:58:18;10.40;99.90
20155;DHT22;10238;49.556;10.956;2023-04-24T02:01:06;10.40;99.90
20155;DHT22;10238;49.556;10.956;2023-04-24T02:03:55;10.40;99.90
20155;DHT22;10238;49.556;10.956;2023-04-24T02:06:43;10.40;99.90
20155;DHT22;10238;49.556;10.956;2023-04-24T02:09:30;10.40;99.90
20155;DHT22;10238;49.556;10.956;2023-04-24T02:12:19;10.40;99.90
20155;DHT22;10238;49.556;10.956;2023-04-24T02:15:09;10.50;99.90
20155;DHT22;10238;49.556;10.956;2023-04-24T02:17:57;10.40;99.90
20155;DHT22;10238;49.556;10.956;2023-04-24T02:20:45;10.40;99.90
20155;DHT22;10238;49.556;10.956;2023-04-24T02:23:33;10.40;99.90
20155;DHT22;10238;49.556;10.956;2023-04-24T02:26:21;10.40;99.90
20155;DHT22;10238;49.556;10.956;2023-04-24T02:29:09;10.40;99.90
20155;DHT22;10238;49.556;10.956;2023-04-24T02:32:00;10.40;99.90
20155;DHT22;10238;49.556;10.956;2023-04-24T02:34:48;10.40;99.90
20155;DHT22;10238;49.556;10.956;2023-04-24T02:37:35;10.40;99.90
20155;DHT22;10238;49.556;10.956;2023-04-24T02:40:23;10.30;99.90
20155;DHT22;10238;49.556;10.956;2023-04-24T02:43:10;10.30;99.90
20155;DHT22;10238;49.556;10.956;2023-04-24T02:45:58;10.30;99.90
20155;DHT22;10238;49.556;10.956;2023-04-24T02:48:47;10.30;99.90
20155;DHT22;10238;49.556;10.956;2023-04-24T02:51:35;10.30;99.90
20155;DHT22;10238;49.556;10.956;2023-04-24T02:54:27;10.30;99.90
20155;DHT22;10238;49.556;10.956;2023-04-24T02:57:14;10.30;99.90
20155;DHT22;10238;49.556;10.956;2023-04-24T03:00:03;10.20;99.90
20155;DHT22;10238;49.556;10.956;2023-04-24T03:02:53;10.20;99.90
20155;DHT22;10238;49.556;10.956;2023-04-24T03:05:42;10.20;99.90
20155;DHT22;10238;49.556;10.956;2023-04-24T03:08:30;10.20;99.90
20155;DHT22;10238;49.556;10.956;2023-04-24T03:11:18;10.20;99.90
20155;DHT22;10238;49.556;10.956;2023-04-24T03:14:05;10.10;99.90
20155;DHT22;10238;49.556;10.956;2023-04-24T03:16:55;10.10;99.90
20155;DHT22;10238;49.556;10.956;2023-04-24T03:19:42;10.10;99.90
20155;DHT22;10238;49.556;10.956;2023-04-24T03:22:32;10.00;99.90
20155;DHT22;10238;49.556;10.956;2023-04-24T03:25:20;10.00;99.90
20155;DHT22;10238;49.556;10.956;2023-04-24T03:28:07;10.00;99.90
20155;DHT22;10238;49.556;10.956;2023-04-24T03:30:55;9.90;99.90
20155;DHT22;10238;49.556;10.956;2023-04-24T03:33:42;9.90;99.90
20155;DHT22;10238;49.556;10.956;2023-04-24T03:36:30;9.90;99.90
20155;DHT22;10238;49.556;10.956;2023-04-24T03:39:19;9.80;99.90
20155;DHT22;10238;49.556;10.956;2023-04-24T03:42:07;9.80;99.90
20155;DHT22;10238;49.556;10.956;2023-04-24T03:44:54;9.70;99.90
20155;DHT22;10238;49.556;10.956;2023-04-24T03:47:42;9.80;99.90
20155;DHT22;10238;49.556;10.956;2023-04-24T03:50:30;9.70;99.90
20155;DHT22;10238;49.556;10.956;2023-04-24T03:53:17;9.70;99.90
20155;DHT22;10238;49.556;10.956;2023-04-24T03:56:07;9.70;99.90
20155;DHT22;10238;49.556;10.956;2023-04-24T03:58:55;9.70;99.90
20155;DHT22;10238;49.556;10.956;2023-04-24T04:01:42;9.70;99.90
20155;DHT22;10238;49.556;10.956;2023-04-24T04:04:31;9.70;99.90
20155;DHT22;10238;49.556;10.956;2023-04-24T04:07:19;9.60;99.90
20155;DHT22;10238;49.556;10.956;2023-04-24T04:10:07;9.60;99.90
20155;DHT22;10238;49.556;10.956;2023-04-24T04:12:57;9.60;99.90
20155;DHT22;10238;49.556;10.956;2023-04-24T04:15:45;9.60;99.90
20155;DHT22;10238;49.556;10.956;2023-04-24T04:18:33;9.60;99.90
20155;DHT22;10238;49.556;10.956;2023-04-24T04:21:21;9.50;99.90
20155;DHT22;10238;49.556;10.956;2023-04-24T04:24:09;9.50;99.90
20155;DHT22;10238;49.556;10.956;2023-04-24T04:26:56;9.50;99.90
20155;DHT22;10238;49.556;10.956;2023-04-24T04:29:45;9.40;99.90
20155;DHT22;10238;49.556;10.956;2023-04-24T04:32:33;9.40;99.90
20155;DHT22;10238;49.556;10.956;2023-04-24T04:35:21;9.40;99.90
20155;DHT22;10238;49.556;10.956;2023-04-24T04:38:08;9.40;99.90
20155;DHT22;10238;49.556;10.956;2023-04-24T04:40:56;9.30;99.90
20155;DHT22;10238;49.556;10.956;2023-04-24T04:43:44;9.40;99.90
20155;DHT22;10238;49.556;10.956;2023-04-24T04:46:34;9.30;99.90
20155;DHT22;10238;49.556;10.956;2023-04-24T04:49:23;9.30;99.90
20155;DHT22;10238;49.556;10.956;2023-04-24T04:52:11;9.30;99.90
20155;DHT22;10238;49.556;10.956;2023-04-24T04:54:59;9.30;99.90
20155;DHT22;10238;49.556;10.956;2023-04-24T04:57:46;9.30;99.90
20155;DHT22;10238;49.556;10.956;2023-04-24T05:00:34;9.30;99.90
20155;DHT22;10238;49.556;10.956;2023-04-24T05:03:24;9.30;99.90
20155;DHT22;10238;49.556;10.956;2023-04-24T05:06:12;9.30;99.90
20155;DHT22;10238;49.556;10.956;2023-04-24T05:09:01;9.30;99.90
20155;DHT22;10238;49.556;10.956;2023-04-24T05:11:49;9.30;99.90
20155;DHT22;10238;49.556;10.956;2023-04-24T05:14:37;9.30;99.90
20155;DHT22;10238;49.556;10.956;2023-04-24T05:17:24;9.40;99.90
20155;DHT22;10238;49.556;10.956;2023-04-24T05:20:14;9.40;99.90
20155;DHT22;10238;49.556;10.956;2023-04-24T05:23:01;9.40;99.90
20155;DHT22;10238;49.556;10.956;2023-04-24T05:25:49;9.40;99.90
20155;DHT22;10238;49.556;10.956;2023-04-24T05:28:37;9.50;99.90
20155;DHT22;10238;49.556;10.956;2023-04-24T05:31:24;9.50;99.90
20155;DHT22;10238;49.556;10.956;2023-04-24T05:34:12;9.50;99.90
20155;DHT22;10238;49.556;10.956;2023-04-24T05:37:01;9.50;99.90
20155;DHT22;10238;49.556;10.956;2023-04-24T05:39:49;9.60;99.90
20155;DHT22;10238;49.556;10.956;2023-04-24T05:42:36;9.60;99.90
20155;DHT22;10238;49.556;10.956;2023-04-24T05:45:24;9.70;99.90
20155;DHT22;10238;49.556;10.956;2023-04-24T05:48:12;9.80;99.90
20155;DHT22;10238;49.556;10.956;2023-04-24T05:51:00;9.80;99.90
20155;DHT22;10238;49.556;10.956;2023-04-24T05:53:49;9.90;99.90
20155;DHT22;10238;49.556;10.956;2023-04-24T05:56:36;9.90;99.90
20155;DHT22;10238;49.556;10.956;2023-04-24T05:59:28;10.00;99.90
20155;DHT22;10238;49.556;10.956;2023-04-24T06:02:15;10.00;99.90
20155;DHT22;10238;49.556;10.956;2023-04-24T06:05:04;10.10;99.90
20155;DHT22;10238;49.556;10.956;2023-04-24T06:07:52;10.20;99.90
20155;DHT22;10238;49.556;10.956;2023-04-24T06:10:41;10.20;99.90
20155;DHT22;10238;49.556;10.956;2023-04-24T06:13:29;10.30;99.90
20155;DHT22;10238;49.556;10.956;2023-04-24T06:16:17;10.30;99.90
20155;DHT22;10238;49.556;10.956;2023-04-24T06:19:05;10.40;99.90
20155;DHT22;10238;49.556;10.956;2023-04-24T06:21:52;10.30;99.90
20155;DHT22;10238;49.556;10.956;2023-04-24T06:24:40;10.40;99.90
20155;DHT22;10238;49.556;10.956;2023-04-24T06:27:29;10.50;99.90
20155;DHT22;10238;49.556;10.956;2023-04-24T06:30:16;10.60;99.90
20155;DHT22;10238;49.556;10.956;2023-04-24T06:33:04;10.60;99.90
20155;DHT22;10238;49.556;10.956;2023-04-24T06:36:06;10.70;99.90
20155;DHT22;10238;49.556;10.956;2023-04-24T06:38:54;10.70;99.90
20155;DHT22;10238;49.556;10.956;2023-04-24T06:41:41;10.70;99.90
20155;DHT22;10238;49.556;10.956;2023-04-24T06:44:30;10.80;99.90
20155;DHT22;10238;49.556;10.956;2023-04-24T06:47:23;10.80;99.90
20155;DHT22;10238;49.556;10.956;2023-04-24T06:50:11;10.90;99.90
20155;DHT22;10238;49.556;10.956;2023-04-24T06:52:59;10.90;99.90
20155;DHT22;10238;49.556;10.956;2023-04-24T06:55:46;11.00;99.90
20155;DHT22;10238;49.556;10.956;2023-04-24T06:58:34;11.00;99.90
20155;DHT22;10238;49.556;10.956;2023-04-24T07:01:23;11.00;99.90
20155;DHT22;10238;49.556;10.956;2023-04-24T07:04:11;11.10;99.90
20155;DHT22;10238;49.556;10.956;2023-04-24T07:07:00;11.10;99.90
20155;DHT22;10238;49.556;10.956;2023-04-24T07:09:47;11.20;99.90
20155;DHT22;10238;49.556;10.956;2023-04-24T07:12:35;11.20;99.90
20155;DHT22;10238;49.556;10.956;2023-04-24T07:15:23;11.30;99.90
20155;DHT22;10238;49.556;10.956;2023-04-24T07:18:12;11.40;99.90
20155;DHT22;10238;49.556;10.956;2023-04-24T07:21:00;11.50;99.90
20155;DHT22;10238;49.556;10.956;2023-04-24T07:23:47;11.60;99.90
20155;DHT22;10238;49.556;10.956;2023-04-24T07:26:35;11.70;99.90
20155;DHT22;10238;49.556;10.956;2023-04-24T07:29:22;11.90;99.90
20155;DHT22;10238;49.556;10.956;2023-04-24T07:32:10;11.90;99.90
20155;DHT22;10238;49.556;10.956;2023-04-24T07:34:59;11.90;99.90
20155;DHT22;10238;49.556;10.956;2023-04-24T07:37:47;12.00;99.90
20155;DHT22;10238;49.556;10.956;2023-04-24T07:40:35;12.10;99.90
20155;DHT22;10238;49.556;10.956;2023-04-24T07:43:23;12.10;99.90
20155;DHT22;10238;49.556;10.956;2023-04-24T07:46:10;12.10;99.90
20155;DHT22;10238;49.556;10.956;2023-04-24T07:48:58;12.10;99.90
20155;DHT22;10238;49.556;10.956;2023-04-24T07:51:59;12.10;99.90
20155;DHT22;10238;49.556;10.956;2023-04-24T07:54:48;12.20;99.90
20155;DHT22;10238;49.556;10.956;2023-04-24T07:57:36;12.40;99.90
20155;DHT22;10238;49.556;10.956;2023-04-24T08:00:24;12.60;99.90
20155;DHT22;10238;49.556;10.956;2023-04-24T08:03:12;12.90;99.90
20155;DHT22;10238;49.556;10.956;2023-04-24T08:06:01;13.30;99.90
20155;DHT22;10238;49.556;10.956;2023-04-24T08:08:50;13.70;99.90
20155;DHT22;10238;49.556;10.956;2023-04-24T08:11:38;14.30;99.90
20155;DHT22;10238;49.556;10.956;2023-04-24T08:14:25;14.50;99.90
20155;DHT22;10238;49.556;10.956;2023-04-24T08:17:13;14.60;99.90
20155;DHT22;10238;49.556;10.956;2023-04-24T08:20:00;15.00;99.90
20155;DHT22;10238;49.556;10.956;2023-04-24T08:22:48;15.10;99.90
20155;DHT22;10238;49.556;10.956;2023-04-24T08:25:37;15.30;99.90
20155;DHT22;10238;49.556;10.956;2023-04-24T08:28:25;15.40;99.90
20155;DHT22;10238;49.556;10.956;2023-04-24T08:31:13;15.40;99.90
20155;DHT22;10238;49.556;10.956;2023-04-24T08:34:00;15.40;99.90
20155;DHT22;10238;49.556;10.956;2023-04-24T08:36:48;15.60;99.90
20155;DHT22;10238;49.556;10.956;2023-04-24T08:39:36;15.50;99.90
20155;DHT22;10238;49.556;10.956;2023-04-24T08:42:28;15.30;99.90
20155;DHT22;10238;49.556;10.956;2023-04-24T08:45:19;15.30;99.90
20155;DHT22;10238;49.556;10.956;2023-04-24T08:48:07;15.20;99.90
20155;DHT22;10238;49.556;10.956;2023-04-24T08:51:12;15.10;99.90
20155;DHT22;10238;49.556;10.956;2023-04-24T08:54:01;15.20;99.90
20155;DHT22;10238;49.556;10.956;2023-04-24T08:56:50;15.20;99.90
20155;DHT22;10238;49.556;10.956;2023-04-24T08:59:48;15.10;99.90
20155;DHT22;10238;49.556;10.956;2023-04-24T09:02:39;15.20;99.90
20155;DHT22;10238;49.556;10.956;2023-04-24T09:05:30;15.20;99.90
20155;DHT22;10238;49.556;10.956;2023-04-24T09:08:18;15.30;99.90
20155;DHT22;10238;49.556;10.956;2023-04-24T09:11:07;15.40;99.90
20155;DHT22;10238;49.556;10.956;2023-04-24T09:13:56;15.50;99.90
20155;DHT22;10238;49.556;10.956;2023-04-24T09:16:46;15.40;99.90
20155;DHT22;10238;49.556;10.956;2023-04-24T09:19:35;15.50;99.90
20155;DHT22;10238;49.556;10.956;2023-04-24T09:22:22;15.70;99.90
20155;DHT22;10238;49.556;10.956;2023-04-24T09:25:11;15.60;99.90
20155;DHT22;10238;49.556;10.956;2023-04-24T09:28:00;15.80;99.90
20155;DHT22;10238;49.556;10.956;2023-04-24T09:31:02;15.90;99.90
20155;DHT22;10238;49.556;10.956;2023-04-24T09:33:56;16.00;99.90
20155;DHT22;10238;49.556;10.956;2023-04-24T09:36:47;16.20;99.90
20155;DHT22;10238;49.556;10.956;2023-04-24T09:39:35;16.60;99.90
20155;DHT22;10238;49.556;10.956;2023-04-24T09:42:25;16.70;99.90
20155;DHT22;10238;49.556;10.956;2023-04-24T09:45:16;16.80;99.90
20155;DHT22;10238;49.556;10.956;2023-04-24T09:48:05;17.00;99.90
20155;DHT22;10238;49.556;10.956;2023-04-24T09:50:55;16.80;99.90
20155;DHT22;10238;49.556;10.956;2023-04-24T09:53:45;16.70;99.90
20155;DHT22;10238;49.556;10.956;2023-04-24T09:56:34;16.60;99.90
20155;DHT22;10238;49.556;10.956;2023-04-24T09:59:26;16.50;99.90
20155;DHT22;10238;49.556;10.956;2023-04-24T10:02:18;16.50;99.90
20155;DHT22;10238;49.556;10.956;2023-04-24T10:05:11;16.60;99.90
20155;DHT22;10238;49.556;10.956;2023-04-24T10:08:07;16.70;99.90
20155;DHT22;10238;49.556;10.956;2023-04-24T10:10:55;16.70;99.90
20155;DHT22;10238;49.556;10.956;2023-04-24T10:13:43;16.90;99.90
20155;DHT22;10238;49.556;10.956;2023-04-24T10:16:31;17.30;99.90
20155;DHT22;10238;49.556;10.956;2023-04-24T10:19:19;17.60;99.90
20155;DHT22;10238;49.556;10.956;2023-04-24T10:22:09;17.80;99.90
20155;DHT22;10238;49.556;10.956;2023-04-24T10:24:59;17.70;99.90
20155;DHT22;10238;49.556;10.956;2023-04-24T10:27:48;17.70;99.90
20155;DHT22;10238;49.556;10.956;2023-04-24T10:30:36;17.60;99.90
20155;DHT22;10238;49.556;10.956;2023-04-24T10:33:24;17.60;99.90
20155;DHT22;10238;49.556;10.956;2023-04-24T10:36:14;17.40;99.90
20155;DHT22;10238;49.556;10.956;2023-04-24T10:39:08;17.20;99.90
20155;DHT22;10238;49.556;10.956;2023-04-24T10:42:00;17.00;99.90
20155;DHT22;10238;49.556;10.956;2023-04-24T10:44:48;16.80;99.90
20155;DHT22;10238;49.556;10.956;2023-04-24T10:47:40;17.00;99.90
20155;DHT22;10238;49.556;10.956;2023-04-24T10:50:30;16.90;99.90
20155;DHT22;10238;49.556;10.956;2023-04-24T10:53:30;16.70;99.90
20155;DHT22;10238;49.556;10.956;2023-04-24T10:56:18;16.80;99.90
20155;DHT22;10238;49.556;10.956;2023-04-24T10:59:09;16.80;99.90
20155;DHT22;10238;49.556;10.956;2023-04-24T11:01:58;16.80;99.90
20155;DHT22;10238;49.556;10.956;2023-04-24T11:04:45;16.70;99.90
20155;DHT22;10238;49.556;10.956;2023-04-24T11:08:11;16.70;99.90
20155;DHT22;10238;49.556;10.956;2023-04-24T11:11:08;16.40;99.90
20155;DHT22;10238;49.556;10.956;2023-04-24T11:14:07;16.30;99.90
20155;DHT22;10238;49.556;10.956;2023-04-24T11:16:57;16.40;99.90
20155;DHT22;10238;49.556;10.956;2023-04-24T11:19:50;16.50;99.90
20155;DHT22;10238;49.556;10.956;2023-04-24T11:22:40;16.70;99.90
20155;DHT22;10238;49.556;10.956;2023-04-24T11:25:30;17.00;99.90
20155;DHT22;10238;49.556;10.956;2023-04-24T11:28:19;17.00;99.90
20155;DHT22;10238;49.556;10.956;2023-04-24T11:31:35;17.20;99.90
20155;DHT22;10238;49.556;10.956;2023-04-24T11:34:27;17.50;99.90
20155;DHT22;10238;49.556;10.956;2023-04-24T11:37:15;17.40;99.90
20155;DHT22;10238;49.556;10.956;2023-04-24T11:40:04;17.40;99.90
20155;DHT22;10238;49.556;10.956;2023-04-24T11:42:54;16.80;99.90
20155;DHT22;10238;49.556;10.956;2023-04-24T11:45:48;16.50;99.90
20155;DHT22;10238;49.556;10.956;2023-04-24T11:48:37;16.30;99.90
20155;DHT22;10238;49.556;10.956;2023-04-24T11:51:27;16.20;99.90
20155;DHT22;10238;49.556;10.956;2023-04-24T11:54:25;16.30;99.90
20155;DHT22;10238;49.556;10.956;2023-04-24T11:57:12;16.10;99.90
20155;DHT22;10238;49.556;10.956;2023-04-24T12:00:00;16.00;99.90
20155;DHT22;10238;49.556;10.956;2023-04-24T12:02:51;16.00;99.90
20155;DHT22;10238;49.556;10.956;2023-04-24T12:05:40;15.90;99.90
20155;DHT22;10238;49.556;10.956;2023-04-24T12:08:28;15.90;99.90
20155;DHT22;10238;49.556;10.956;2023-04-24T12:11:17;16.10;99.90
20155;DHT22;10238;49.556;10.956;2023-04-24T12:14:10;16.20;99.90
20155;DHT22;10238;49.556;10.956;2023-04-24T12:16:58;16.30;99.90
20155;DHT22;10238;49.556;10.956;2023-04-24T12:19:46;16.60;99.90
20155;DHT22;10238;49.556;10.956;2023-04-24T12:22:45;16.70;99.90
20155;DHT22;10238;49.556;10.956;2023-04-24T12:25:34;17.00;99.90
20155;DHT22;10238;49.556;10.956;2023-04-24T12:28:22;17.10;99.90
20155;DHT22;10238;49.556;10.956;2023-04-24T12:31:11;17.20;99.90
20155;DHT22;10238;49.556;10.956;2023-04-24T12:33:59;17.20;99.90
20155;DHT22;10238;49.556;10.956;2023-04-24T12:36:48;17.10;99.90
20155;DHT22;10238;49.556;10.956;2023-04-24T12:39:37;17.00;99.90
20155;DHT22;10238;49.556;10.956;2023-04-24T12:42:26;17.00;99.90
20155;DHT22;10238;49.556;10.956;2023-04-24T12:45:15;16.90;99.90
20155;DHT22;10238;49.556;10.956;2023-04-24T12:48:04;16.90;99.90
20155;DHT22;10238;49.556;10.956;2023-04-24T12:50:52;16.80;99.90
20155;DHT22;10238;49.556;10.956;2023-04-24T12:53:39;16.80;99.90
20155;DHT22;10238;49.556;10.956;2023-04-24T12:56:29;16.80;99.90
20155;DHT22;10238;49.556;10.956;2023-04-24T12:59:17;16.80;99.90
20155;DHT22;10238;49.556;10.956;2023-04-24T13:02:04;16.80;99.90
20155;DHT22;10238;49.556;10.956;2023-04-24T13:04:53;16.90;99.90
20155;DHT22;10238;49.556;10.956;2023-04-24T13:07:40;17.10;99.90
20155;DHT22;10238;49.556;10.956;2023-04-24T13:10:28;17.20;99.90
20155;DHT22;10238;49.556;10.956;2023-04-24T13:13:18;17.20;99.90
20155;DHT22;10238;49.556;10.956;2023-04-24T13:16:06;17.30;99.90
20155;DHT22;10238;49.556;10.956;2023-04-24T13:18:53;17.50;99.90
20155;DHT22;10238;49.556;10.956;2023-04-24T13:21:41;17.50;99.90
20155;DHT22;10238;49.556;10.956;2023-04-24T13:24:29;17.70;99.90
20155;DHT22;10238;49.556;10.956;2023-04-24T13:27:17;17.90;99.90
20155;DHT22;10238;49.556;10.956;2023-04-24T13:30:10;17.80;99.90
20155;DHT22;10238;49.556;10.956;2023-04-24T13:32:58;18.00;99.90
20155;DHT22;10238;49.556;10.956;2023-04-24T13:35:46;18.20;99.90
20155;DHT22;10238;49.556;10.956;2023-04-24T13:38:34;18.10;99.90
20155;DHT22;10238;49.556;10.956;2023-04-24T13:41:22;17.90;99.90
20155;DHT22;10238;49.556;10.956;2023-04-24T13:44:10;18.10;99.90
20155;DHT22;10238;49.556;10.956;2023-04-24T13:46:59;18.20;99.90
20155;DHT22;10238;49.556;10.956;2023-04-24T13:49:46;18.40;99.90
20155;DHT22;10238;49.556;10.956;2023-04-24T13:52:34;18.30;99.90
20155;DHT22;10238;49.556;10.956;2023-04-24T13:55:22;18.40;99.90
20155;DHT22;10238;49.556;10.956;2023-04-24T13:58:10;18.60;99.90
20155;DHT22;10238;49.556;10.956;2023-04-24T14:00:57;18.70;99.90
20155;DHT22;10238;49.556;10.956;2023-04-24T14:03:46;19.00;99.90
20155;DHT22;10238;49.556;10.956;2023-04-24T14:06:35;19.00;99.90
20155;DHT22;10238;49.556;10.956;2023-04-24T14:09:22;19.10;99.90
20155;DHT22;10238;49.556;10.956;2023-04-24T14:12:10;19.30;99.90
20155;DHT22;10238;49.556;10.956;2023-04-24T14:14:59;19.60;99.90
20155;DHT22;10238;49.556;10.956;2023-04-24T14:17:48;19.60;99.90
20155;DHT22;10238;49.556;10.956;2023-04-24T14:20:37;20.00;99.90
20155;DHT22;10238;49.556;10.956;2023-04-24T14:23:25;20.10;99.90
20155;DHT22;10238;49.556;10.956;2023-04-24T14:26:12;19.90;99.90
20155;DHT22;10238;49.556;10.956;2023-04-24T14:29:00;20.00;99.90
20155;DHT22;10238;49.556;10.956;2023-04-24T14:32:00;19.90;99.90
20155;DHT22;10238;49.556;10.956;2023-04-24T14:34:47;19.80;99.90
20155;DHT22;10238;49.556;10.956;2023-04-24T14:37:37;19.10;99.90
20155;DHT22;10238;49.556;10.956;2023-04-24T14:40:27;19.30;99.90
20155;DHT22;10238;49.556;10.956;2023-04-24T14:43:37;19.10;99.90
20155;DHT22;10238;49.556;10.956;2023-04-24T14:46:25;19.00;99.90
20155;DHT22;10238;49.556;10.956;2023-04-24T14:49:13;18.70;99.90
20155;DHT22;10238;49.556;10.956;2023-04-24T14:52:05;18.40;99.90
20155;DHT22;10238;49.556;10.956;2023-04-24T14:54:54;18.20;99.90
20155;DHT22;10238;49.556;10.956;2023-04-24T14:57:42;18.00;99.90
20155;DHT22;10238;49.556;10.956;2023-04-24T15:00:30;18.10;99.90
20155;DHT22;10238;49.556;10.956;2023-04-24T15:03:20;18.10;99.90
20155;DHT22;10238;49.556;10.956;2023-04-24T15:06:09;18.20;99.90
20155;DHT22;10238;49.556;10.956;2023-04-24T15:08:56;18.30;99.90
20155;DHT22;10238;49.556;10.956;2023-04-24T15:11:46;18.40;99.90
20155;DHT22;10238;49.556;10.956;2023-04-24T15:14:34;18.50;99.90
20155;DHT22;10238;49.556;10.956;2023-04-24T15:17:21;18.50;99.90
20155;DHT22;10238;49.556;10.956;2023-04-24T15:20:09;18.60;99.90
20155;DHT22;10238;49.556;10.956;2023-04-24T15:22:57;18.30;99.90
20155;DHT22;10238;49.556;10.956;2023-04-24T15:25:46;18.20;99.90
20155;DHT22;10238;49.556;10.956;2023-04-24T15:28:35;18.40;99.90
20155;DHT22;10238;49.556;10.956;2023-04-24T15:31:22;18.40;99.90
20155;DHT22;10238;49.556;10.956;2023-04-24T15:34:10;18.50;99.90
20155;DHT22;10238;49.556;10.956;2023-04-24T15:36:57;18.30;99.90
20155;DHT22;10238;49.556;10.956;2023-04-24T15:39:45;18.20;99.90
20155;DHT22;10238;49.556;10.956;2023-04-24T15:42:33;18.00;99.90
20155;DHT22;10238;49.556;10.956;2023-04-24T15:45:23;17.70;99.90
20155;DHT22;10238;49.556;10.956;2023-04-24T15:48:11;17.50;99.90
20155;DHT22;10238;49.556;10.956;2023-04-24T15:50:59;17.20;99.90
20155;DHT22;10238;49.556;10.956;2023-04-24T15:53:47;17.10;99.90
20155;DHT22;10238;49.556;10.956;2023-04-24T15:56:35;17.00;99.90
20155;DHT22;10238;49.556;10.956;2023-04-24T15:59:23;16.80;99.90
20155;DHT22;10238;49.556;10.956;2023-04-24T16:02:13;16.30;99.90
20155;DHT22;10238;49.556;10.956;2023-04-24T16:05:04;16.30;99.90
20155;DHT22;10238;49.556;10.956;2023-04-24T16:07:54;16.30;99.90
20155;DHT22;10238;49.556;10.956;2023-04-24T16:10:48;16.20;99.90
20155;DHT22;10238;49.556;10.956;2023-04-24T16:13:37;16.00;99.90
20155;DHT22;10238;49.556;10.956;2023-04-24T16:16:25;15.90;99.90
20155;DHT22;10238;49.556;10.956;2023-04-24T16:19:17;15.70;99.90
20155;DHT22;10238;49.556;10.956;2023-04-24T16:22:04;15.50;99.90
20155;DHT22;10238;49.556;10.956;2023-04-24T16:24:52;15.70;99.90
20155;DHT22;10238;49.556;10.956;2023-04-24T16:27:40;15.50;99.90
20155;DHT22;10238;49.556;10.956;2023-04-24T16:30:28;15.60;99.90
20155;DHT22;10238;49.556;10.956;2023-04-24T16:33:15;15.70;99.90
20155;DHT22;10238;49.556;10.956;2023-04-24T16:36:05;15.90;99.90
20155;DHT22;10238;49.556;10.956;2023-04-24T16:38:53;16.20;99.90
20155;DHT22;10238;49.556;10.956;2023-04-24T16:41:41;16.20;99.90
20155;DHT22;10238;49.556;10.956;2023-04-24T16:44:32;16.20;99.90
20155;DHT22;10238;49.556;10.956;2023-04-24T16:47:19;16.20;99.90
20155;DHT22;10238;49.556;10.956;2023-04-24T16:50:10;16.20;99.90
20155;DHT22;10238;49.556;10.956;2023-04-24T16:53:02;16.30;99.90
20155;DHT22;10238;49.556;10.956;2023-04-24T16:55:50;16.40;99.90
20155;DHT22;10238;49.556;10.956;2023-04-24T16:58:38;16.50;99.90
20155;DHT22;10238;49.556;10.956;2023-04-24T17:01:29;16.60;99.90
20155;DHT22;10238;49.556;10.956;2023-04-24T17:04:18;16.80;99.90
20155;DHT22;10238;49.556;10.956;2023-04-24T17:07:06;16.80;99.90
20155;DHT22;10238;49.556;10.956;2023-04-24T17:09:55;16.80;99.90
20155;DHT22;10238;49.556;10.956;2023-04-24T17:12:43;16.60;99.90
20155;DHT22;10238;49.556;10.956;2023-04-24T17:15:31;16.40;99.90
20155;DHT22;10238;49.556;10.956;2023-04-24T17:18:20;16.10;99.90
20155;DHT22;10238;49.556;10.956;2023-04-24T17:21:11;16.00;99.90
20155;DHT22;10238;49.556;10.956;2023-04-24T17:24:14;15.80;99.90
20155;DHT22;10238;49.556;10.956;2023-04-24T17:27:03;15.70;99.90
20155;DHT22;10238;49.556;10.956;2023-04-24T17:30:00;15.40;99.90
20155;DHT22;10238;49.556;10.956;2023-04-24T17:32:52;15.30;99.90